sensor_id;sensor_type;location;lat;lon;timestamp;P1;durP1;ratioP1;P2;durP2;ratioP2
77828;SDS011;67019;51.034;3.728;2023-07-29T00:01:48;3.95;;;1.75;;
77828;SDS011;67019;51.034;3.728;2023-07-29T00:04:15;7.03;;;2.17;;
77828;SDS011;67019;51.034;3.728;2023-07-29T00:06:45;3.58;;;1.90;;
77828;SDS011;67019;51.034;3.728;2023-07-29T00:09:14;4.50;;;2.15;;
77828;SDS011;67019;51.034;3.728;2023-07-29T00:11:42;4.28;;;1.95;;
77828;SDS011;67019;51.034;3.728;2023-07-29T00:14:11;4.60;;;2.65;;
77828;SDS011;67019;51.034;3.728;2023-07-29T00:16:38;3.60;;;2.20;;
77828;SDS011;67019;51.034;3.728;2023-07-29T00:19:07;5.67;;;2.60;;
77828;SDS011;67019;51.034;3.728;2023-07-29T00:21:34;4.42;;;2.83;;
77828;SDS011;67019;51.034;3.728;2023-07-29T00:24:04;3.83;;;3.27;;
77828;SDS011;67019;51.034;3.728;2023-07-29T00:26:31;7.53;;;3.50;;
77828;SDS011;67019;51.034;3.728;2023-07-29T00:29:01;6.28;;;4.37;;
77828;SDS011;67019;51.034;3.728;2023-07-29T00:31:30;5.78;;;2.60;;
77828;SDS011;67019;51.034;3.728;2023-07-29T00:33:59;7.72;;;2.52;;
77828;SDS011;67019;51.034;3.728;2023-07-29T00:36:27;5.70;;;2.95;;
77828;SDS011;67019;51.034;3.728;2023-07-29T00:38:54;3.67;;;2.50;;
77828;SDS011;67019;51.034;3.728;2023-07-29T00:41:23;6.42;;;2.22;;
77828;SDS011;67019;51.034;3.728;2023-07-29T00:43:52;4.85;;;2.35;;
77828;SDS011;67019;51.034;3.728;2023-07-29T00:46:20;3.10;;;2.22;;
77828;SDS011;67019;51.034;3.728;2023-07-29T00:48:48;4.33;;;2.80;;
77828;SDS011;67019;51.034;3.728;2023-07-29T00:51:16;7.40;;;2.77;;
77828;SDS011;67019;51.034;3.728;2023-07-29T00:53:43;4.20;;;2.72;;
77828;SDS011;67019;51.034;3.728;2023-07-29T00:56:11;4.08;;;2.83;;
77828;SDS011;67019;51.034;3.728;2023-07-29T00:58:39;4.55;;;2.55;;
77828;SDS011;67019;51.034;3.728;2023-07-29T01:01:07;3.55;;;2.62;;
77828;SDS011;67019;51.034;3.728;2023-07-29T01:03:35;4.35;;;2.30;;
77828;SDS011;67019;51.034;3.728;2023-07-29T01:06:13;6.25;;;2.37;;
77828;SDS011;67019;51.034;3.728;2023-07-29T01:14:21;7.83;;;3.02;;
77828;SDS011;67019;51.034;3.728;2023-07-29T01:17:00;3.58;;;2.37;;
77828;SDS011;67019;51.034;3.728;2023-07-29T01:22:22;4.97;;;2.45;;
77828;SDS011;67019;51.034;3.728;2023-07-29T01:24:52;5.80;;;2.83;;
77828;SDS011;67019;51.034;3.728;2023-07-29T01:27:20;3.85;;;2.92;;
77828;SDS011;67019;51.034;3.728;2023-07-29T01:29:51;5.87;;;3.25;;
77828;SDS011;67019;51.034;3.728;2023-07-29T01:32:25;4.85;;;3.25;;
77828;SDS011;67019;51.034;3.728;2023-07-29T01:37:48;5.20;;;3.20;;
77828;SDS011;67019;51.034;3.728;2023-07-29T01:40:18;4.70;;;2.70;;
77828;SDS011;67019;51.034;3.728;2023-07-29T01:42:47;4.28;;;3.00;;
77828;SDS011;67019;51.034;3.728;2023-07-29T01:45:15;7.22;;;3.08;;
77828;SDS011;67019;51.034;3.728;2023-07-29T01:47:43;7.65;;;3.40;;
77828;SDS011;67019;51.034;3.728;2023-07-29T01:50:10;5.67;;;4.05;;
77828;SDS011;67019;51.034;3.728;2023-07-29T01:52:38;7.37;;;2.95;;
77828;SDS011;67019;51.034;3.728;2023-07-29T01:55:06;3.60;;;2.83;;
77828;SDS011;67019;51.034;3.728;2023-07-29T01:57:34;6.25;;;3.12;;
77828;SDS011;67019;51.034;3.728;2023-07-29T02:00:01;3.37;;;2.58;;
77828;SDS011;67019;51.034;3.728;2023-07-29T02:02:29;6.87;;;3.20;;
77828;SDS011;67019;51.034;3.728;2023-07-29T02:04:57;5.00;;;2.65;;
77828;SDS011;67019;51.034;3.728;2023-07-29T02:07:25;4.97;;;3.00;;
77828;SDS011;67019;51.034;3.728;2023-07-29T02:09:53;7.83;;;2.77;;
77828;SDS011;67019;51.034;3.728;2023-07-29T02:12:20;8.98;;;2.95;;
77828;SDS011;67019;51.034;3.728;2023-07-29T02:14:48;6.37;;;3.10;;
77828;SDS011;67019;51.034;3.728;2023-07-29T02:17:15;9.85;;;2.90;;
77828;SDS011;67019;51.034;3.728;2023-07-29T02:19:43;3.17;;;2.67;;
77828;SDS011;67019;51.034;3.728;2023-07-29T02:22:13;8.23;;;3.20;;
77828;SDS011;67019;51.034;3.728;2023-07-29T02:24:40;5.25;;;2.50;;
77828;SDS011;67019;51.034;3.728;2023-07-29T02:27:08;3.50;;;2.55;;
77828;SDS011;67019;51.034;3.728;2023-07-29T02:29:36;4.97;;;2.77;;
77828;SDS011;67019;51.034;3.728;2023-07-29T02:32:03;5.28;;;3.40;;
77828;SDS011;67019;51.034;3.728;2023-07-29T02:34:31;6.08;;;2.98;;
77828;SDS011;67019;51.034;3.728;2023-07-29T02:36:59;5.67;;;2.60;;
77828;SDS011;67019;51.034;3.728;2023-07-29T02:39:27;4.00;;;2.80;;
77828;SDS011;67019;51.034;3.728;2023-07-29T02:41:54;5.35;;;2.75;;
77828;SDS011;67019;51.034;3.728;2023-07-29T02:44:24;3.70;;;2.37;;
77828;SDS011;67019;51.034;3.728;2023-07-29T02:46:52;6.17;;;3.10;;
77828;SDS011;67019;51.034;3.728;2023-07-29T02:49:21;4.42;;;3.20;;
77828;SDS011;67019;51.034;3.728;2023-07-29T02:51:49;4.70;;;3.33;;
77828;SDS011;67019;51.034;3.728;2023-07-29T02:54:18;3.22;;;2.42;;
77828;SDS011;67019;51.034;3.728;2023-07-29T02:56:46;3.47;;;2.22;;
77828;SDS011;67019;51.034;3.728;2023-07-29T02:59:14;5.55;;;2.90;;
77828;SDS011;67019;51.034;3.728;2023-07-29T03:01:41;4.15;;;2.87;;
77828;SDS011;67019;51.034;3.728;2023-07-29T03:04:09;4.17;;;2.50;;
77828;SDS011;67019;51.034;3.728;2023-07-29T03:06:38;4.08;;;2.90;;
77828;SDS011;67019;51.034;3.728;2023-07-29T03:09:06;4.70;;;2.50;;
77828;SDS011;67019;51.034;3.728;2023-07-29T03:11:34;3.95;;;2.72;;
77828;SDS011;67019;51.034;3.728;2023-07-29T03:14:03;5.28;;;2.90;;
77828;SDS011;67019;51.034;3.728;2023-07-29T03:16:31;4.60;;;2.58;;
77828;SDS011;67019;51.034;3.728;2023-07-29T03:19:00;6.35;;;2.50;;
77828;SDS011;67019;51.034;3.728;2023-07-29T03:21:29;4.20;;;2.98;;
77828;SDS011;67019;51.034;3.728;2023-07-29T03:23:57;4.92;;;2.80;;
77828;SDS011;67019;51.034;3.728;2023-07-29T03:26:24;5.42;;;2.40;;
77828;SDS011;67019;51.034;3.728;2023-07-29T03:28:52;4.40;;;3.37;;
77828;SDS011;67019;51.034;3.728;2023-07-29T03:31:20;3.75;;;2.65;;
77828;SDS011;67019;51.034;3.728;2023-07-29T03:33:47;8.30;;;3.20;;
77828;SDS011;67019;51.034;3.728;2023-07-29T03:36:15;5.15;;;2.87;;
77828;SDS011;67019;51.034;3.728;2023-07-29T03:38:45;3.87;;;2.72;;
77828;SDS011;67019;51.034;3.728;2023-07-29T03:41:13;4.35;;;2.65;;
77828;SDS011;67019;51.034;3.728;2023-07-29T03:43:40;2.83;;;2.40;;
77828;SDS011;67019;51.034;3.728;2023-07-29T03:46:08;5.95;;;3.15;;
77828;SDS011;67019;51.034;3.728;2023-07-29T03:48:36;7.00;;;3.50;;
77828;SDS011;67019;51.034;3.728;2023-07-29T03:51:03;4.78;;;3.30;;
77828;SDS011;67019;51.034;3.728;2023-07-29T03:53:31;4.30;;;2.85;;
77828;SDS011;67019;51.034;3.728;2023-07-29T03:56:00;6.75;;;3.37;;
77828;SDS011;67019;51.034;3.728;2023-07-29T03:58:28;5.42;;;2.70;;
77828;SDS011;67019;51.034;3.728;2023-07-29T04:00:58;6.60;;;3.52;;
77828;SDS011;67019;51.034;3.728;2023-07-29T04:03:24;8.18;;;3.30;;
77828;SDS011;67019;51.034;3.728;2023-07-29T04:05:52;5.62;;;3.10;;
77828;SDS011;67019;51.034;3.728;2023-07-29T04:08:20;6.50;;;3.52;;
77828;SDS011;67019;51.034;3.728;2023-07-29T04:10:48;4.50;;;3.22;;
77828;SDS011;67019;51.034;3.728;2023-07-29T04:13:15;4.15;;;3.15;;
77828;SDS011;67019;51.034;3.728;2023-07-29T04:15:43;4.95;;;2.83;;
77828;SDS011;67019;51.034;3.728;2023-07-29T04:18:11;9.68;;;3.40;;
77828;SDS011;67019;51.034;3.728;2023-07-29T04:20:39;7.47;;;3.42;;
77828;SDS011;67019;51.034;3.728;2023-07-29T04:23:06;10.25;;;3.15;;
77828;SDS011;67019;51.034;3.728;2023-07-29T04:25:37;6.87;;;3.52;;
77828;SDS011;67019;51.034;3.728;2023-07-29T04:28:05;6.58;;;2.65;;
77828;SDS011;67019;51.034;3.728;2023-07-29T04:30:32;7.35;;;3.08;;
77828;SDS011;67019;51.034;3.728;2023-07-29T04:33:00;5.08;;;2.77;;
77828;SDS011;67019;51.034;3.728;2023-07-29T04:35:28;5.55;;;2.87;;
77828;SDS011;67019;51.034;3.728;2023-07-29T04:37:55;5.50;;;2.80;;
77828;SDS011;67019;51.034;3.728;2023-07-29T04:40:23;4.03;;;2.58;;
77828;SDS011;67019;51.034;3.728;2023-07-29T04:42:51;2.95;;;2.62;;
77828;SDS011;67019;51.034;3.728;2023-07-29T04:45:18;9.03;;;2.90;;
77828;SDS011;67019;51.034;3.728;2023-07-29T04:47:46;9.28;;;3.50;;
77828;SDS011;67019;51.034;3.728;2023-07-29T04:50:14;4.20;;;2.60;;
77828;SDS011;67019;51.034;3.728;2023-07-29T04:52:41;6.42;;;2.37;;
77828;SDS011;67019;51.034;3.728;2023-07-29T04:55:09;4.67;;;2.20;;
77828;SDS011;67019;51.034;3.728;2023-07-29T04:57:36;4.95;;;2.37;;
77828;SDS011;67019;51.034;3.728;2023-07-29T05:00:04;5.17;;;2.40;;
77828;SDS011;67019;51.034;3.728;2023-07-29T05:02:32;6.35;;;2.85;;
77828;SDS011;67019;51.034;3.728;2023-07-29T05:05:00;3.80;;;2.83;;
77828;SDS011;67019;51.034;3.728;2023-07-29T05:07:28;5.30;;;2.67;;
77828;SDS011;67019;51.034;3.728;2023-07-29T05:09:55;4.15;;;2.40;;
77828;SDS011;67019;51.034;3.728;2023-07-29T05:12:23;3.70;;;2.62;;
77828;SDS011;67019;51.034;3.728;2023-07-29T05:14:51;3.52;;;2.08;;
77828;SDS011;67019;51.034;3.728;2023-07-29T05:17:21;5.70;;;2.55;;
77828;SDS011;67019;51.034;3.728;2023-07-29T05:19:50;6.58;;;2.12;;
77828;SDS011;67019;51.034;3.728;2023-07-29T05:22:18;3.47;;;2.40;;
77828;SDS011;67019;51.034;3.728;2023-07-29T05:24:45;2.98;;;1.80;;
77828;SDS011;67019;51.034;3.728;2023-07-29T05:27:13;3.42;;;2.35;;
77828;SDS011;67019;51.034;3.728;2023-07-29T05:29:41;5.72;;;2.62;;
77828;SDS011;67019;51.034;3.728;2023-07-29T05:32:09;3.77;;;1.90;;
77828;SDS011;67019;51.034;3.728;2023-07-29T05:34:38;2.67;;;2.02;;
77828;SDS011;67019;51.034;3.728;2023-07-29T05:37:05;5.65;;;2.17;;
77828;SDS011;67019;51.034;3.728;2023-07-29T05:39:33;3.77;;;2.55;;
77828;SDS011;67019;51.034;3.728;2023-07-29T05:42:01;8.63;;;3.17;;
77828;SDS011;67019;51.034;3.728;2023-07-29T05:44:29;5.45;;;1.90;;
77828;SDS011;67019;51.034;3.728;2023-07-29T05:46:58;4.37;;;2.00;;
77828;SDS011;67019;51.034;3.728;2023-07-29T05:49:27;2.10;;;1.80;;
77828;SDS011;67019;51.034;3.728;2023-07-29T05:51:55;4.17;;;2.17;;
77828;SDS011;67019;51.034;3.728;2023-07-29T05:54:23;2.67;;;1.92;;
77828;SDS011;67019;51.034;3.728;2023-07-29T05:56:50;3.45;;;2.00;;
77828;SDS011;67019;51.034;3.728;2023-07-29T05:59:18;2.83;;;2.02;;
77828;SDS011;67019;51.034;3.728;2023-07-29T06:01:45;3.52;;;1.82;;
77828;SDS011;67019;51.034;3.728;2023-07-29T06:04:16;5.05;;;1.92;;
77828;SDS011;67019;51.034;3.728;2023-07-29T06:06:43;3.50;;;1.72;;
77828;SDS011;67019;51.034;3.728;2023-07-29T06:09:11;5.70;;;2.10;;
77828;SDS011;67019;51.034;3.728;2023-07-29T06:11:39;3.02;;;1.77;;
77828;SDS011;67019;51.034;3.728;2023-07-29T06:14:06;3.10;;;1.62;;
77828;SDS011;67019;51.034;3.728;2023-07-29T06:16:34;5.80;;;1.77;;
77828;SDS011;67019;51.034;3.728;2023-07-29T06:19:03;2.85;;;2.00;;
77828;SDS011;67019;51.034;3.728;2023-07-29T06:21:31;4.30;;;1.55;;
77828;SDS011;67019;51.034;3.728;2023-07-29T06:23:58;2.50;;;1.75;;
77828;SDS011;67019;51.034;3.728;2023-07-29T06:26:26;4.37;;;2.40;;
77828;SDS011;67019;51.034;3.728;2023-07-29T06:28:54;3.02;;;1.65;;
77828;SDS011;67019;51.034;3.728;2023-07-29T06:31:22;2.90;;;1.62;;
77828;SDS011;67019;51.034;3.728;2023-07-29T06:33:52;5.90;;;2.33;;
77828;SDS011;67019;51.034;3.728;2023-07-29T06:36:20;2.70;;;1.72;;
77828;SDS011;67019;51.034;3.728;2023-07-29T06:38:48;1.77;;;1.60;;
77828;SDS011;67019;51.034;3.728;2023-07-29T06:41:15;5.83;;;2.00;;
77828;SDS011;67019;51.034;3.728;2023-07-29T06:43:45;2.98;;;2.27;;
77828;SDS011;67019;51.034;3.728;2023-07-29T06:46:12;1.85;;;1.60;;
77828;SDS011;67019;51.034;3.728;2023-07-29T06:48:40;2.62;;;1.85;;
77828;SDS011;67019;51.034;3.728;2023-07-29T06:51:09;3.20;;;1.50;;
77828;SDS011;67019;51.034;3.728;2023-07-29T06:53:37;3.08;;;1.90;;
77828;SDS011;67019;51.034;3.728;2023-07-29T06:56:04;1.45;;;1.35;;
77828;SDS011;67019;51.034;3.728;2023-07-29T06:58:37;3.85;;;1.82;;
77828;SDS011;67019;51.034;3.728;2023-07-29T07:01:01;2.62;;;1.92;;
77828;SDS011;67019;51.034;3.728;2023-07-29T07:03:29;2.05;;;1.37;;
77828;SDS011;67019;51.034;3.728;2023-07-29T07:05:58;3.55;;;1.75;;
77828;SDS011;67019;51.034;3.728;2023-07-29T07:08:26;2.27;;;1.55;;
77828;SDS011;67019;51.034;3.728;2023-07-29T07:10:54;3.15;;;1.92;;
77828;SDS011;67019;51.034;3.728;2023-07-29T07:13:21;3.65;;;1.67;;
77828;SDS011;67019;51.034;3.728;2023-07-29T07:15:49;2.62;;;1.80;;
77828;SDS011;67019;51.034;3.728;2023-07-29T07:18:17;5.00;;;1.77;;
77828;SDS011;67019;51.034;3.728;2023-07-29T07:20:47;4.42;;;1.60;;
77828;SDS011;67019;51.034;3.728;2023-07-29T07:23:15;3.47;;;1.60;;
77828;SDS011;67019;51.034;3.728;2023-07-29T07:25:43;3.20;;;1.90;;
77828;SDS011;67019;51.034;3.728;2023-07-29T07:28:11;3.15;;;1.75;;
77828;SDS011;67019;51.034;3.728;2023-07-29T07:30:41;3.90;;;1.98;;
77828;SDS011;67019;51.034;3.728;2023-07-29T07:35:37;2.42;;;1.62;;
77828;SDS011;67019;51.034;3.728;2023-07-29T07:38:07;3.45;;;1.72;;
77828;SDS011;67019;51.034;3.728;2023-07-29T07:40:35;4.10;;;1.87;;
77828;SDS011;67019;51.034;3.728;2023-07-29T07:43:03;4.20;;;1.82;;
77828;SDS011;67019;51.034;3.728;2023-07-29T07:45:36;1.62;;;1.27;;
77828;SDS011;67019;51.034;3.728;2023-07-29T07:48:00;3.37;;;1.98;;
77828;SDS011;67019;51.034;3.728;2023-07-29T07:50:29;3.37;;;1.30;;
77828;SDS011;67019;51.034;3.728;2023-07-29T07:52:57;4.10;;;1.35;;
77828;SDS011;67019;51.034;3.728;2023-07-29T07:55:25;3.80;;;1.55;;
77828;SDS011;67019;51.034;3.728;2023-07-29T07:57:53;2.70;;;1.67;;
77828;SDS011;67019;51.034;3.728;2023-07-29T08:00:23;2.05;;;1.45;;
77828;SDS011;67019;51.034;3.728;2023-07-29T08:02:50;2.37;;;1.50;;
77828;SDS011;67019;51.034;3.728;2023-07-29T08:05:17;2.12;;;1.62;;
77828;SDS011;67019;51.034;3.728;2023-07-29T08:07:45;4.67;;;1.60;;
77828;SDS011;67019;51.034;3.728;2023-07-29T08:10:13;1.57;;;1.47;;
77828;SDS011;67019;51.034;3.728;2023-07-29T08:12:40;2.05;;;1.60;;
77828;SDS011;67019;51.034;3.728;2023-07-29T08:15:11;6.87;;;2.17;;
77828;SDS011;67019;51.034;3.728;2023-07-29T08:17:37;3.47;;;1.40;;
77828;SDS011;67019;51.034;3.728;2023-07-29T08:20:06;2.83;;;1.47;;
77828;SDS011;67019;51.034;3.728;2023-07-29T08:22:36;5.35;;;2.00;;
77828;SDS011;67019;51.034;3.728;2023-07-29T08:25:07;3.90;;;1.77;;
77828;SDS011;67019;51.034;3.728;2023-07-29T08:27:39;9.38;;;2.58;;
77828;SDS011;67019;51.034;3.728;2023-07-29T08:30:07;3.87;;;1.80;;
77828;SDS011;67019;51.034;3.728;2023-07-29T08:32:35;4.08;;;2.20;;
77828;SDS011;67019;51.034;3.728;2023-07-29T08:35:04;3.37;;;1.70;;
77828;SDS011;67019;51.034;3.728;2023-07-29T08:37:32;5.37;;;1.80;;
77828;SDS011;67019;51.034;3.728;2023-07-29T08:40:02;3.95;;;2.25;;
77828;SDS011;67019;51.034;3.728;2023-07-29T08:42:31;1.92;;;1.77;;
77828;SDS011;67019;51.034;3.728;2023-07-29T08:45:07;3.12;;;1.75;;
77828;SDS011;67019;51.034;3.728;2023-07-29T08:47:36;6.78;;;2.05;;
77828;SDS011;67019;51.034;3.728;2023-07-29T08:50:04;3.08;;;1.77;;
77828;SDS011;67019;51.034;3.728;2023-07-29T08:52:33;6.42;;;2.10;;
77828;SDS011;67019;51.034;3.728;2023-07-29T08:55:01;2.20;;;1.70;;
77828;SDS011;67019;51.034;3.728;2023-07-29T08:57:29;2.87;;;1.57;;
77828;SDS011;67019;51.034;3.728;2023-07-29T08:59:57;2.60;;;1.90;;
77828;SDS011;67019;51.034;3.728;2023-07-29T09:02:27;2.37;;;1.80;;
77828;SDS011;67019;51.034;3.728;2023-07-29T09:04:54;3.17;;;1.92;;
77828;SDS011;67019;51.034;3.728;2023-07-29T09:07:22;5.35;;;1.82;;
77828;SDS011;67019;51.034;3.728;2023-07-29T09:09:50;2.55;;;1.92;;
77828;SDS011;67019;51.034;3.728;2023-07-29T09:12:17;2.27;;;1.40;;
77828;SDS011;67019;51.034;3.728;2023-07-29T09:14:45;2.75;;;1.60;;
77828;SDS011;67019;51.034;3.728;2023-07-29T09:17:13;3.00;;;1.62;;
77828;SDS011;67019;51.034;3.728;2023-07-29T09:19:41;4.58;;;1.98;;
77828;SDS011;67019;51.034;3.728;2023-07-29T09:22:16;4.60;;;1.72;;
77828;SDS011;67019;51.034;3.728;2023-07-29T09:24:47;3.58;;;2.02;;
77828;SDS011;67019;51.034;3.728;2023-07-29T09:27:27;4.53;;;1.98;;
77828;SDS011;67019;51.034;3.728;2023-07-29T09:30:02;2.87;;;2.05;;
77828;SDS011;67019;51.034;3.728;2023-07-29T09:32:31;2.95;;;1.60;;
77828;SDS011;67019;51.034;3.728;2023-07-29T09:34:58;2.00;;;1.80;;
77828;SDS011;67019;51.034;3.728;2023-07-29T09:37:26;3.65;;;1.80;;
77828;SDS011;67019;51.034;3.728;2023-07-29T09:39:55;3.50;;;2.20;;
77828;SDS011;67019;51.034;3.728;2023-07-29T09:42:24;3.17;;;1.52;;
77828;SDS011;67019;51.034;3.728;2023-07-29T09:44:54;4.60;;;2.55;;
77828;SDS011;67019;51.034;3.728;2023-07-29T09:47:22;4.55;;;2.10;;
77828;SDS011;67019;51.034;3.728;2023-07-29T09:49:51;2.00;;;1.80;;
77828;SDS011;67019;51.034;3.728;2023-07-29T09:52:20;4.12;;;2.22;;
77828;SDS011;67019;51.034;3.728;2023-07-29T09:54:49;7.20;;;2.25;;
77828;SDS011;67019;51.034;3.728;2023-07-29T09:57:18;4.12;;;2.10;;
77828;SDS011;67019;51.034;3.728;2023-07-29T09:59:55;3.20;;;1.82;;
77828;SDS011;67019;51.034;3.728;2023-07-29T10:02:23;3.25;;;1.85;;
77828;SDS011;67019;51.034;3.728;2023-07-29T10:04:54;3.42;;;2.33;;
77828;SDS011;67019;51.034;3.728;2023-07-29T10:07:23;5.90;;;2.40;;
77828;SDS011;67019;51.034;3.728;2023-07-29T10:09:51;3.35;;;2.40;;
77828;SDS011;67019;51.034;3.728;2023-07-29T10:12:19;3.08;;;2.20;;
77828;SDS011;67019;51.034;3.728;2023-07-29T10:14:48;4.55;;;2.65;;
77828;SDS011;67019;51.034;3.728;2023-07-29T10:17:16;4.37;;;3.47;;
77828;SDS011;67019;51.034;3.728;2023-07-29T10:19:47;6.90;;;3.37;;
77828;SDS011;67019;51.034;3.728;2023-07-29T10:22:15;6.75;;;2.70;;
77828;SDS011;67019;51.034;3.728;2023-07-29T10:24:46;4.55;;;2.65;;
77828;SDS011;67019;51.034;3.728;2023-07-29T10:27:15;9.60;;;3.20;;
77828;SDS011;67019;51.034;3.728;2023-07-29T10:29:44;13.55;;;4.03;;
77828;SDS011;67019;51.034;3.728;2023-07-29T10:32:12;9.43;;;3.77;;
77828;SDS011;67019;51.034;3.728;2023-07-29T10:34:41;4.25;;;2.90;;
77828;SDS011;67019;51.034;3.728;2023-07-29T10:37:09;3.15;;;2.30;;
77828;SDS011;67019;51.034;3.728;2023-07-29T10:39:39;4.85;;;2.70;;
77828;SDS011;67019;51.034;3.728;2023-07-29T10:42:08;9.75;;;3.27;;
77828;SDS011;67019;51.034;3.728;2023-07-29T10:44:57;5.47;;;2.67;;
77828;SDS011;67019;51.034;3.728;2023-07-29T10:47:12;3.30;;;2.55;;
77828;SDS011;67019;51.034;3.728;2023-07-29T10:49:42;4.12;;;2.90;;
77828;SDS011;67019;51.034;3.728;2023-07-29T10:52:14;5.30;;;3.00;;
77828;SDS011;67019;51.034;3.728;2023-07-29T10:54:44;5.78;;;4.37;;
77828;SDS011;67019;51.034;3.728;2023-07-29T10:57:13;5.72;;;4.22;;
77828;SDS011;67019;51.034;3.728;2023-07-29T10:59:53;3.65;;;3.00;;
77828;SDS011;67019;51.034;3.728;2023-07-29T11:02:32;4.08;;;3.30;;
77828;SDS011;67019;51.034;3.728;2023-07-29T11:05:22;3.05;;;2.55;;
77828;SDS011;67019;51.034;3.728;2023-07-29T11:07:48;3.65;;;2.58;;
77828;SDS011;67019;51.034;3.728;2023-07-29T11:10:12;5.90;;;2.40;;
77828;SDS011;67019;51.034;3.728;2023-07-29T11:15:18;3.22;;;2.50;;
77828;SDS011;67019;51.034;3.728;2023-07-29T11:17:48;2.60;;;2.40;;
77828;SDS011;67019;51.034;3.728;2023-07-29T11:20:18;1.75;;;1.65;;
77828;SDS011;67019;51.034;3.728;2023-07-29T11:22:48;4.53;;;1.82;;
77828;SDS011;67019;51.034;3.728;2023-07-29T11:25:16;2.83;;;1.72;;
77828;SDS011;67019;51.034;3.728;2023-07-29T11:27:45;3.87;;;2.00;;
77828;SDS011;67019;51.034;3.728;2023-07-29T11:30:14;2.83;;;2.02;;
77828;SDS011;67019;51.034;3.728;2023-07-29T11:32:43;4.17;;;2.05;;
77828;SDS011;67019;51.034;3.728;2023-07-29T11:35:13;5.55;;;1.82;;
77828;SDS011;67019;51.034;3.728;2023-07-29T11:37:50;3.20;;;2.37;;
77828;SDS011;67019;51.034;3.728;2023-07-29T11:40:19;2.85;;;2.55;;
77828;SDS011;67019;51.034;3.728;2023-07-29T11:45:13;2.42;;;1.80;;
77828;SDS011;67019;51.034;3.728;2023-07-29T11:47:41;3.75;;;1.80;;
77828;SDS011;67019;51.034;3.728;2023-07-29T11:50:09;1.75;;;1.65;;
77828;SDS011;67019;51.034;3.728;2023-07-29T11:52:40;5.33;;;2.37;;
77828;SDS011;67019;51.034;3.728;2023-07-29T11:55:09;2.25;;;1.67;;
77828;SDS011;67019;51.034;3.728;2023-07-29T11:57:38;6.53;;;1.90;;
77828;SDS011;67019;51.034;3.728;2023-07-29T12:00:07;3.05;;;1.87;;
77828;SDS011;67019;51.034;3.728;2023-07-29T12:02:41;3.00;;;2.10;;
77828;SDS011;67019;51.034;3.728;2023-07-29T12:05:13;3.70;;;1.95;;
77828;SDS011;67019;51.034;3.728;2023-07-29T12:07:42;3.30;;;2.35;;
77828;SDS011;67019;51.034;3.728;2023-07-29T12:10:11;3.80;;;1.97;;
77828;SDS011;67019;51.034;3.728;2023-07-29T12:12:45;3.12;;;1.60;;
77828;SDS011;67019;51.034;3.728;2023-07-29T12:15:14;1.57;;;1.42;;
77828;SDS011;67019;51.034;3.728;2023-07-29T12:17:57;2.08;;;1.52;;
77828;SDS011;67019;51.034;3.728;2023-07-29T12:20:26;1.15;;;1.00;;
77828;SDS011;67019;51.034;3.728;2023-07-29T12:22:58;1.35;;;1.00;;
77828;SDS011;67019;51.034;3.728;2023-07-29T12:25:31;2.55;;;1.40;;
77828;SDS011;67019;51.034;3.728;2023-07-29T12:28:02;2.80;;;1.77;;
77828;SDS011;67019;51.034;3.728;2023-07-29T12:30:32;4.85;;;1.77;;
77828;SDS011;67019;51.034;3.728;2023-07-29T12:33:00;1.75;;;1.37;;
77828;SDS011;67019;51.034;3.728;2023-07-29T12:35:37;2.15;;;1.50;;
77828;SDS011;67019;51.034;3.728;2023-07-29T12:38:03;1.52;;;1.20;;
77828;SDS011;67019;51.034;3.728;2023-07-29T12:40:31;2.45;;;1.98;;
77828;SDS011;67019;51.034;3.728;2023-07-29T12:42:59;4.00;;;1.75;;
77828;SDS011;67019;51.034;3.728;2023-07-29T12:45:27;2.85;;;1.40;;
77828;SDS011;67019;51.034;3.728;2023-07-29T12:47:56;2.80;;;1.27;;
77828;SDS011;67019;51.034;3.728;2023-07-29T12:50:24;2.12;;;1.70;;
77828;SDS011;67019;51.034;3.728;2023-07-29T12:52:52;2.75;;;1.17;;
77828;SDS011;67019;51.034;3.728;2023-07-29T12:55:20;2.98;;;1.57;;
77828;SDS011;67019;51.034;3.728;2023-07-29T12:57:47;3.27;;;1.50;;
77828;SDS011;67019;51.034;3.728;2023-07-29T13:00:16;1.47;;;1.37;;
77828;SDS011;67019;51.034;3.728;2023-07-29T13:02:43;3.70;;;1.82;;
77828;SDS011;67019;51.034;3.728;2023-07-29T13:05:11;2.05;;;1.22;;
77828;SDS011;67019;51.034;3.728;2023-07-29T13:07:39;2.60;;;1.65;;
77828;SDS011;67019;51.034;3.728;2023-07-29T13:10:07;6.58;;;1.37;;
77828;SDS011;67019;51.034;3.728;2023-07-29T13:12:36;2.08;;;1.20;;
77828;SDS011;67019;51.034;3.728;2023-07-29T13:15:04;1.35;;;1.00;;
77828;SDS011;67019;51.034;3.728;2023-07-29T13:17:32;1.12;;;1.02;;
77828;SDS011;67019;51.034;3.728;2023-07-29T13:20:00;1.57;;;1.00;;
77828;SDS011;67019;51.034;3.728;2023-07-29T13:22:29;4.33;;;1.30;;
77828;SDS011;67019;51.034;3.728;2023-07-29T13:24:57;1.82;;;1.40;;
77828;SDS011;67019;51.034;3.728;2023-07-29T13:27:24;2.22;;;1.20;;
77828;SDS011;67019;51.034;3.728;2023-07-29T13:29:52;1.82;;;1.22;;
77828;SDS011;67019;51.034;3.728;2023-07-29T13:32:20;2.62;;;1.50;;
77828;SDS011;67019;51.034;3.728;2023-07-29T13:34:47;4.55;;;1.50;;
77828;SDS011;67019;51.034;3.728;2023-07-29T13:37:15;3.02;;;1.75;;
77828;SDS011;67019;51.034;3.728;2023-07-29T13:39:43;3.50;;;2.90;;
77828;SDS011;67019;51.034;3.728;2023-07-29T13:42:10;2.80;;;2.05;;
77828;SDS011;67019;51.034;3.728;2023-07-29T13:44:38;2.15;;;1.80;;
77828;SDS011;67019;51.034;3.728;2023-07-29T13:47:06;3.83;;;2.27;;
77828;SDS011;67019;51.034;3.728;2023-07-29T13:49:33;3.35;;;1.87;;
77828;SDS011;67019;51.034;3.728;2023-07-29T13:52:01;4.42;;;2.05;;
77828;SDS011;67019;51.034;3.728;2023-07-29T13:54:29;3.65;;;1.87;;
77828;SDS011;67019;51.034;3.728;2023-07-29T13:56:56;2.08;;;1.87;;
77828;SDS011;67019;51.034;3.728;2023-07-29T13:59:24;2.55;;;2.35;;
77828;SDS011;67019;51.034;3.728;2023-07-29T14:01:52;2.70;;;2.30;;
77828;SDS011;67019;51.034;3.728;2023-07-29T14:04:21;2.08;;;1.80;;
77828;SDS011;67019;51.034;3.728;2023-07-29T14:06:49;2.72;;;1.02;;
77828;SDS011;67019;51.034;3.728;2023-07-29T14:09:16;2.77;;;1.27;;
77828;SDS011;67019;51.034;3.728;2023-07-29T14:11:46;2.75;;;1.27;;
77828;SDS011;67019;51.034;3.728;2023-07-29T14:14:14;1.95;;;1.20;;
77828;SDS011;67019;51.034;3.728;2023-07-29T14:16:42;1.62;;;0.90;;
77828;SDS011;67019;51.034;3.728;2023-07-29T14:19:10;0.88;;;0.70;;
77828;SDS011;67019;51.034;3.728;2023-07-29T14:21:37;3.20;;;0.95;;
77828;SDS011;67019;51.034;3.728;2023-07-29T14:24:06;1.10;;;0.80;;
77828;SDS011;67019;51.034;3.728;2023-07-29T14:26:35;0.70;;;0.70;;
77828;SDS011;67019;51.034;3.728;2023-07-29T14:29:02;0.65;;;0.62;;
77828;SDS011;67019;51.034;3.728;2023-07-29T14:31:31;1.35;;;0.90;;
77828;SDS011;67019;51.034;3.728;2023-07-29T14:33:59;0.70;;;0.70;;
77828;SDS011;67019;51.034;3.728;2023-07-29T14:36:27;2.47;;;0.82;;
77828;SDS011;67019;51.034;3.728;2023-07-29T14:38:55;2.17;;;0.80;;
77828;SDS011;67019;51.034;3.728;2023-07-29T14:41:22;1.65;;;0.80;;
77828;SDS011;67019;51.034;3.728;2023-07-29T14:43:50;1.37;;;0.90;;
77828;SDS011;67019;51.034;3.728;2023-07-29T14:46:18;1.15;;;0.80;;
77828;SDS011;67019;51.034;3.728;2023-07-29T14:48:47;0.70;;;0.70;;
77828;SDS011;67019;51.034;3.728;2023-07-29T14:51:14;1.22;;;0.88;;
77828;SDS011;67019;51.034;3.728;2023-07-29T14:53:44;1.77;;;0.88;;
77828;SDS011;67019;51.034;3.728;2023-07-29T14:56:12;1.77;;;0.80;;
77828;SDS011;67019;51.034;3.728;2023-07-29T14:58:41;1.25;;;1.15;;
77828;SDS011;67019;51.034;3.728;2023-07-29T15:01:09;0.93;;;0.65;;
77828;SDS011;67019;51.034;3.728;2023-07-29T15:03:37;0.78;;;0.70;;
77828;SDS011;67019;51.034;3.728;2023-07-29T15:06:04;1.22;;;0.90;;
77828;SDS011;67019;51.034;3.728;2023-07-29T15:08:32;2.55;;;1.00;;
77828;SDS011;67019;51.034;3.728;2023-07-29T15:10:59;1.35;;;0.82;;
77828;SDS011;67019;51.034;3.728;2023-07-29T15:13:28;1.17;;;1.02;;
77828;SDS011;67019;51.034;3.728;2023-07-29T15:15:55;3.37;;;1.25;;